This is the latest recevied weather packets stored in our database for station/object KM8ICE-10. If no packets are shown the sender has not sent any weather packets the latest 10 day(s).
| Time | Temp. | Humidity | Pressure | Rain* | Wind** | Luminosity | Snow |
|---|---|---|---|---|---|---|---|
| 1777437738 | 16.67° C | 94% | 1014.9 hPa | 0 mm | - | - | - |
| 1777437607 | 16.67° C | 94% | 1014.9 hPa | 0 mm | - | - | - |
| 1777437007 | 16.67° C | 94% | 1015.2 hPa | 0 mm | - | - | - |
| 1777436408 | 16.67° C | 94% | 1015.4 hPa | 0 mm | - | - | - |
| 1777435808 | 16.67° C | 93% | 1015.2 hPa | 0.25 mm | - | - | - |
| 1777435207 | 16.67° C | 93% | 1014.9 hPa | 5.08 mm | - | - | - |
| 1777434608 | 16.67° C | 93% | 1014.3 hPa | 5.08 mm | - | - | - |
| 1777434008 | 17.22° C | 92% | 1014.2 hPa | 5.08 mm | - | - | - |
| 1777433409 | 17.22° C | 92% | 1014.7 hPa | 5.08 mm | - | - | - |
| 1777432808 | 17.78° C | 92% | 1015 hPa | 5.08 mm | - | - | - |
| 1777432208 | 18.33° C | 89% | 1014.3 hPa | 4.57 mm | - | - | - |
| 1777431607 | 20° C | 83% | 1013.5 hPa | 0 mm | - | - | - |
| 1777431007 | 20° C | 83% | 1013.8 hPa | 0 mm | - | - | - |
| 1777430533 | 20° C | 82% | 1014.3 hPa | 0 mm | - | - | - |
| 1777430407 | 20° C | 82% | 1014.3 hPa | 0 mm | - | - | - |
| 1777430220 | 20° C | 82% | 1014.2 hPa | 0 mm | - | - | - |
| 1777429808 | 20° C | 81% | 1014.4 hPa | 0 mm | - | - | - |
| 1777429207 | 20° C | 82% | 1014.2 hPa | 0 mm | - | - | - |
| 1777428607 | 20° C | 81% | 1014.3 hPa | 0 mm | - | - | - |
| 1777428008 | 20° C | 79% | 1014.1 hPa | 0 mm | - | - | - |
| 1777427407 | 20.56° C | 78% | 1014.6 hPa | 0 mm | - | - | - |
| 1777427219 | 20.56° C | 78% | 1014.8 hPa | 0 mm | - | - | - |
| 1777426807 | 20.56° C | 78% | 1014.8 hPa | 0 mm | - | - | - |
| 1777416007 | 23.89° C | 63% | 1014.5 hPa | 0 mm | - | - | - |
| 1777415408 | 23.89° C | 62% | 1014.3 hPa | 0 mm | - | - | - |
* Rain latest hour (hover to see other rain measurements)
** Current wind speed in m/s (hover to see current wind gust speed)